Time;durP1;ratioP1;P1;durP2;ratioP2;P2;SDS_P1;SDS_P2;PMS_P1;PMS_P2;Temp;Humidity;BMP_temperature;BMP_pressure;BME280_temperature;BME280_humidity;BME280_pressure;Samples;Min_cycle;Max_cycle;Signal;HPM_P1;HPM_P2
2022/09/03 00:02:06;;;;;;;25.88;17.08;;;22.10;62.90;;;;;;5014116;28;20030;-87
2022/09/03 00:05:04;;;;;;;23.92;17.15;;;22.10;61.80;;;;;;5013896;28;20026;-88
2022/09/03 00:07:43;;;;;;;26.58;17.52;;;22.10;62.40;;;;;;5015350;28;20038;-87
2022/09/03 00:10:18;;;;;;;27.55;17.02;;;22.10;62.50;;;;;;4981103;28;20042;-86
2022/09/03 00:12:45;;;;;;;23.90;17.15;;;22.10;62.00;;;;;;4997580;28;20037;-87
2022/09/03 00:15:15;;;;;;;23.73;17.30;;;22.10;62.30;;;;;;4997436;28;20540;-87
2022/09/03 00:17:48;;;;;;;23.38;16.92;;;22.10;62.20;;;;;;5014849;28;20037;-87
2022/09/03 00:20:22;;;;;;;24.38;17.45;;;22.10;62.20;;;;;;5014396;28;20033;-87
2022/09/03 00:22:52;;;;;;;22.95;16.52;;;22.10;62.40;;;;;;5014826;28;20026;-88
2022/09/03 00:25:32;;;;;;;24.65;16.73;;;22.10;62.50;;;;;;5012874;28;20054;-87
2022/09/03 00:28:03;;;;;;;24.17;16.73;;;22.10;61.90;;;;;;4997731;28;20428;-87
2022/09/03 00:30:30;;;;;;;24.77;15.65;;;22.10;61.90;;;;;;4996937;28;20088;-87
2022/09/03 00:33:20;;;;;;;22.58;15.90;;;22.10;61.90;;;;;;4996946;28;20034;-87
2022/09/03 00:36:08;;;;;;;23.27;15.77;;;22.10;61.80;;;;;;5014508;28;20033;-85
2022/09/03 00:38:33;;;;;;;23.15;15.52;;;22.10;62.40;;;;;;4967435;28;20104;-84
2022/09/03 00:41:28;;;;;;;21.58;15.57;;;22.20;62.20;;;;;;4996938;28;20493;-86
2022/09/03 00:43:54;;;;;;;20.55;15.40;;;22.10;62.20;;;;;;4996692;28;20065;-86
2022/09/03 00:46:35;;;;;;;18.80;14.73;;;22.20;62.60;;;;;;5013114;28;20103;-85
2022/09/03 00:49:31;;;;;;;24.67;15.48;;;22.20;62.40;;;;;;4996288;28;20426;-87
2022/09/03 00:52:29;;;;;;;22.33;16.08;;;22.20;62.70;;;;;;4991840;28;20085;-87
2022/09/03 00:55:01;;;;;;;20.48;15.60;;;22.20;62.80;;;;;;4996628;28;20038;-84
2022/09/03 00:57:43;;;;;;;24.10;15.75;;;22.20;62.60;;;;;;5013053;28;20057;-84
2022/09/03 01:00:14;;;;;;;21.38;15.38;;;22.20;62.60;;;;;;5013538;28;20033;-85
2022/09/03 01:02:49;;;;;;;20.58;14.73;;;22.20;62.80;;;;;;5013781;28;20029;-85
2022/09/03 01:05:33;;;;;;;22.38;14.40;;;22.20;62.80;;;;;;5013633;28;20034;-85
2022/09/03 01:08:22;;;;;;;19.05;14.40;;;22.20;63.00;;;;;;5014129;28;20026;-86
2022/09/03 01:10:55;;;;;;;20.70;14.40;;;22.20;63.20;;;;;;4996274;28;20076;-86
2022/09/03 01:13:37;;;;;;;18.20;13.50;;;22.20;63.20;;;;;;4996855;28;20129;-84
2022/09/03 01:16:20;;;;;;;19.85;14.18;;;22.20;63.30;;;;;;5012782;28;20026;-85
2022/09/03 01:19:12;;;;;;;18.63;13.25;;;22.20;63.10;;;;;;5014382;28;20034;-84
2022/09/03 01:22:02;;;;;;;20.33;14.07;;;22.20;63.10;;;;;;4977020;28;20065;-85
2022/09/03 01:24:31;;;;;;;;;;;22.20;63.20;;;;;;5016873;28;20033;-85
2022/09/03 01:27:09;;;;;;;20.13;13.43;;;22.20;63.20;;;;;;5016347;28;19913;-85
2022/09/03 01:29:54;;;;;;;20.47;14.57;;;22.20;63.40;;;;;;4999340;28;20118;-85
2022/09/03 01:32:36;;;;;;;18.38;12.63;;;22.20;63.30;;;;;;5017712;28;20037;-85
2022/09/03 01:35:34;;;;;;;17.60;13.05;;;22.20;63.20;;;;;;5020171;28;20059;-86
2022/09/03 01:38:12;;;;;;;17.83;12.45;;;22.20;63.30;;;;;;4943246;28;20049;-85
2022/09/03 01:40:46;;;;;;;17.52;12.95;;;22.20;63.40;;;;;;5031530;22;20478;-78
2022/09/03 01:43:31;;;;;;;20.30;12.88;;;22.20;63.40;;;;;;5005438;28;20042;-78
2022/09/03 01:46:06;;;;;;;19.67;13.18;;;22.20;63.70;;;;;;5032635;28;20409;-78
2022/09/03 01:48:58;;;;;;;17.83;13.07;;;22.20;63.50;;;;;;4998352;28;20488;-78
2022/09/03 01:51:28;;;;;;;21.60;13.35;;;22.20;63.50;;;;;;4998058;28;20033;-77
2022/09/03 01:53:56;;;;;;;20.75;13.13;;;22.20;63.40;;;;;;4975296;28;20022;-78
2022/09/03 01:56:58;;;;;;;20.20;12.55;;;22.30;63.80;;;;;;4993502;28;20081;-76
2022/09/03 01:59:36;;;;;;;26.45;18.70;;;22.20;64.10;;;;;;4991873;28;20112;-74
2022/09/03 02:02:29;;;;;;;29.27;21.73;;;22.20;63.10;;;;;;4976162;28;20034;-78
2022/09/03 02:05:08;;;;;;;34.75;24.30;;;22.10;60.70;;;;;;4959951;28;20038;-78
2022/09/03 02:07:53;;;;;;;34.25;21.05;;;22.10;59.90;;;;;;4976107;28;20414;-79
2022/09/03 02:10:22;;;;;;;27.13;19.55;;;22.10;60.10;;;;;;4993100;28;20088;-78
2022/09/03 02:12:51;;;;;;;;;;;22.10;60.90;;;;;;4976625;28;20030;-79
2022/09/03 02:15:21;;;;;;;23.23;16.42;;;22.00;61.20;;;;;;4993355;28;19910;-79
2022/09/03 02:17:52;;;;;;;27.45;17.95;;;22.10;61.80;;;;;;4992280;28;20081;-78
2022/09/03 02:20:22;;;;;;;29.05;18.08;;;22.10;61.90;;;;;;4975721;28;20034;-79
2022/09/03 02:22:49;;;;;;;26.60;17.60;;;22.10;62.10;;;;;;4993237;28;20100;-80
2022/09/03 02:25:16;;;;;;;30.33;18.27;;;22.10;62.20;;;;;;4992957;28;20030;-80
2022/09/03 02:27:43;;;;;;;24.98;17.42;;;22.10;62.20;;;;;;4959497;28;20031;-78
2022/09/03 02:30:09;;;;;;;27.25;17.20;;;22.10;62.30;;;;;;4992605;28;20035;-79
2022/09/03 02:32:35;;;;;;;27.73;17.00;;;22.10;61.50;;;;;;4993075;28;20029;-79
2022/09/03 02:35:01;;;;;;;24.65;16.63;;;22.10;62.50;;;;;;4993026;28;20022;-79
2022/09/03 02:37:27;;;;;;;30.98;17.20;;;22.10;62.60;;;;;;4975629;28;20030;-79
2022/09/03 02:39:53;;;;;;;29.35;17.48;;;22.10;62.60;;;;;;4992523;28;20550;-78
2022/09/03 02:42:19;;;;;;;23.67;16.35;;;22.10;62.50;;;;;;4975505;28;20048;-79
2022/09/03 02:44:51;;;;;;;32.42;17.02;;;22.10;62.60;;;;;;4992709;28;20034;-79
2022/09/03 02:47:19;;;;;;;25.17;16.48;;;22.10;63.20;;;;;;4975555;28;20057;-79
2022/09/03 02:49:48;;;;;;;29.73;16.33;;;22.10;62.60;;;;;;4975349;28;20482;-79
2022/09/03 02:52:15;;;;;;;29.75;15.98;;;22.10;62.60;;;;;;4975629;28;20041;-79
2022/09/03 02:54:43;;;;;;;27.70;15.73;;;22.10;62.90;;;;;;4992812;28;20026;-79
2022/09/03 02:57:12;;;;;;;24.23;15.98;;;22.10;63.00;;;;;;4975377;28;20438;-79
2022/09/03 02:59:40;;;;;;;26.65;16.45;;;22.10;63.00;;;;;;4992481;28;20026;-79
2022/09/03 03:02:07;;;;;;;21.38;15.02;;;22.10;63.10;;;;;;4975385;28;20085;-78
2022/09/03 03:04:33;;;;;;;22.90;15.10;;;22.10;63.00;;;;;;4991684;28;20030;-79
2022/09/03 03:07:00;;;;;;;28.02;15.35;;;22.10;62.50;;;;;;4992713;28;20043;-79
2022/09/03 03:09:26;;;;;;;22.50;15.27;;;22.10;62.90;;;;;;4992469;28;20053;-79
2022/09/03 03:11:54;;;;;;;22.00;15.15;;;22.10;63.30;;;;;;4975193;28;20026;-79
2022/09/03 03:14:20;;;;;;;24.20;14.88;;;22.10;63.00;;;;;;4975381;28;20105;-80
2022/09/03 03:16:45;;;;;;;25.52;15.27;;;22.10;62.90;;;;;;4991393;28;20117;-78
2022/09/03 03:19:11;;;;;;;20.55;14.35;;;22.10;63.10;;;;;;4992364;28;20061;-79
2022/09/03 03:21:37;;;;;;;23.38;14.63;;;22.10;62.90;;;;;;4992507;28;20033;-78
2022/09/03 03:24:03;;;;;;;22.27;14.75;;;22.10;63.00;;;;;;4992571;28;20058;-78
2022/09/03 03:26:29;;;;;;;20.35;14.10;;;22.10;63.10;;;;;;4992369;28;20034;-77
2022/09/03 03:28:56;;;;;;;20.85;13.65;;;22.10;63.10;;;;;;4974677;28;20042;-77
2022/09/03 03:31:23;;;;;;;21.45;14.25;;;22.10;63.10;;;;;;4992390;28;20027;-78
2022/09/03 03:33:58;;;;;;;20.27;15.52;;;22.10;63.20;;;;;;4991289;28;20393;-77
2022/09/03 03:36:27;;;;;;;19.60;13.85;;;22.10;63.20;;;;;;4974952;28;20026;-78
2022/09/03 03:38:55;;;;;;;22.93;13.50;;;22.10;63.10;;;;;;4990771;28;20062;-78
2022/09/03 03:41:33;;;;;;;18.55;13.05;;;22.10;62.40;;;;;;4992387;28;20073;-78
2022/09/03 03:44:04;;;;;;;21.73;14.73;;;22.10;62.50;;;;;;4991162;28;20502;-77
2022/09/03 03:46:34;;;;;;;21.92;14.15;;;22.10;62.60;;;;;;4991008;28;20109;-77
2022/09/03 03:49:00;;;;;;;20.17;13.80;;;22.10;62.80;;;;;;4990845;28;20038;-78
2022/09/03 03:51:26;;;;;;;20.10;13.95;;;22.10;62.40;;;;;;4974675;28;20031;-78
2022/09/03 03:53:56;;;;;;;19.02;13.38;;;22.10;62.50;;;;;;4975065;28;20042;-78
2022/09/03 03:56:23;;;;;;;17.80;12.57;;;22.10;62.90;;;;;;4992331;28;20371;-78
2022/09/03 03:58:50;;;;;;;19.00;13.20;;;22.10;63.40;;;;;;4992447;28;20670;-78
2022/09/03 04:01:19;;;;;;;19.25;13.40;;;22.10;63.40;;;;;;4994391;28;20030;-79
2022/09/03 04:03:45;;;;;;;20.13;13.50;;;22.10;63.30;;;;;;4978183;28;20109;-77
2022/09/03 04:06:13;;;;;;;22.02;13.35;;;22.10;63.30;;;;;;4961907;28;20486;-77
2022/09/03 04:08:41;;;;;;;18.65;13.05;;;22.10;63.20;;;;;;4995225;28;20026;-77
2022/09/03 04:11:09;;;;;;;18.85;12.90;;;22.10;62.90;;;;;;4995589;28;20034;-77
2022/09/03 04:13:40;;;;;;;19.70;13.10;;;22.10;63.20;;;;;;4995542;28;20463;-77
2022/09/03 04:16:12;;;;;;;18.15;12.82;;;22.10;62.80;;;;;;4978424;28;20475;-77
2022/09/03 04:18:39;;;;;;;17.90;12.30;;;22.10;62.40;;;;;;4961921;28;20038;-77
2022/09/03 04:21:10;;;;;;;19.13;13.60;;;22.10;62.40;;;;;;4978035;28;20101;-77
2022/09/03 04:23:41;;;;;;;17.75;13.02;;;22.00;62.20;;;;;;4994083;28;20593;-77
2022/09/03 04:26:09;;;;;;;18.70;12.80;;;22.00;62.20;;;;;;4995385;28;20114;-77
2022/09/03 04:28:35;;;;;;;25.48;12.65;;;22.10;62.10;;;;;;4994982;28;20037;-77
2022/09/03 04:31:03;;;;;;;17.88;12.05;;;22.00;62.10;;;;;;4993862;28;20422;-77
2022/09/03 04:33:30;;;;;;;18.75;11.98;;;22.10;62.00;;;;;;4994921;28;20033;-76
2022/09/03 04:36:07;;;;;;;17.55;12.48;;;22.10;62.10;;;;;;4994811;28;20078;-76
2022/09/03 04:38:35;;;;;;;17.92;12.52;;;22.10;62.00;;;;;;4977418;28;20048;-76
2022/09/03 04:41:01;;;;;;;16.83;11.65;;;22.10;61.90;;;;;;4993450;28;20034;-76
2022/09/03 04:43:28;;;;;;;18.23;12.48;;;22.10;62.50;;;;;;4994651;28;20030;-76
2022/09/03 04:45:58;;;;;;;19.42;11.43;;;22.10;61.80;;;;;;4993383;28;20395;-76
2022/09/03 04:48:25;;;;;;;18.27;11.30;;;22.10;61.90;;;;;;4977128;28;20030;-76
2022/09/03 04:50:52;;;;;;;17.95;11.40;;;22.10;61.90;;;;;;4993161;28;20033;-77
2022/09/03 04:53:17;;;;;;;17.88;11.65;;;22.10;62.00;;;;;;4993307;28;20368;-77
2022/09/03 04:55:43;;;;;;;18.35;12.07;;;22.10;61.90;;;;;;4977187;28;20061;-77
2022/09/03 04:58:09;;;;;;;16.52;11.30;;;22.10;62.00;;;;;;4993282;28;20487;-77
2022/09/03 05:00:36;;;;;;;16.58;11.88;;;22.10;62.10;;;;;;4994172;28;20101;-77
2022/09/03 05:03:05;;;;;;;17.95;11.73;;;22.10;62.40;;;;;;4983181;28;20056;-77
2022/09/03 05:05:34;;;;;;;20.17;11.87;;;22.10;62.30;;;;;;4979030;28;20069;-78
2022/09/03 05:08:00;;;;;;;18.65;11.82;;;22.10;62.50;;;;;;4995620;28;20675;-78
2022/09/03 05:10:27;;;;;;;18.05;11.80;;;22.10;62.60;;;;;;4978567;28;20026;-78
2022/09/03 05:13:03;;;;;;;17.98;12.30;;;22.10;62.80;;;;;;4996170;28;20063;-79
2022/09/03 05:15:31;;;;;;;16.77;10.98;;;22.00;62.90;;;;;;4963687;28;20041;-79
2022/09/03 05:18:02;;;;;;;16.33;11.82;;;22.10;63.00;;;;;;4980216;28;20439;-79
2022/09/03 05:20:29;;;;;;;15.77;11.13;;;22.10;62.70;;;;;;5013169;28;20033;-78
2022/09/03 05:22:56;;;;;;;16.77;11.00;;;22.00;63.00;;;;;;5013382;28;20033;-78
2022/09/03 05:25:23;;;;;;;20.73;11.65;;;22.00;63.20;;;;;;5013625;28;20117;-78
2022/09/03 05:27:49;;;;;;;15.90;11.15;;;22.00;63.10;;;;;;4995944;28;20172;-78
2022/09/03 05:30:15;;;;;;;16.63;10.88;;;22.00;63.10;;;;;;5013118;28;20443;-78
2022/09/03 05:32:41;;;;;;;17.83;10.68;;;22.00;63.30;;;;;;5013314;28;20024;-78
2022/09/03 05:35:08;;;;;;;15.13;11.32;;;22.10;63.50;;;;;;4995528;28;20055;-78
2022/09/03 05:37:33;;;;;;;18.35;11.55;;;22.00;63.30;;;;;;5013127;28;20076;-78
2022/09/03 05:39:59;;;;;;;16.10;11.25;;;22.00;65.10;;;;;;5012961;28;20436;-77
2022/09/03 05:42:27;;;;;;;15.00;10.10;;;22.10;64.10;;;;;;5013138;28;20060;-77
2022/09/03 05:44:53;;;;;;;16.42;10.65;;;22.00;64.30;;;;;;4995677;28;20116;-77
2022/09/03 05:47:19;;;;;;;15.00;10.43;;;22.00;63.10;;;;;;4995715;28;20034;-77
2022/09/03 05:49:45;;;;;;;15.60;10.52;;;22.10;63.90;;;;;;4995262;28;20417;-77
2022/09/03 05:52:11;;;;;;;15.40;10.82;;;22.10;63.60;;;;;;5012875;28;20400;-77
2022/09/03 05:54:37;;;;;;;16.15;10.73;;;22.10;63.90;;;;;;4995463;28;20033;-77
2022/09/03 05:57:03;;;;;;;17.02;10.38;;;22.10;63.90;;;;;;4979532;28;20044;-77
2022/09/03 05:59:29;;;;;;;18.13;11.10;;;22.10;64.10;;;;;;5012621;28;20029;-77
2022/09/03 06:01:54;;;;;;;16.92;10.65;;;22.10;64.20;;;;;;5012915;28;20075;-77
2022/09/03 06:04:20;;;;;;;16.50;10.50;;;22.10;64.20;;;;;;5012924;28;20121;-77
2022/09/03 06:06:47;;;;;;;16.27;10.18;;;22.10;64.30;;;;;;4995017;28;20034;-77
2022/09/03 06:09:16;;;;;;;19.25;10.75;;;22.10;64.10;;;;;;4994956;28;20061;-77
2022/09/03 06:11:44;;;;;;;15.88;10.80;;;22.10;64.20;;;;;;5012719;28;20030;-77
2022/09/03 06:14:12;;;;;;;21.13;10.70;;;22.10;63.90;;;;;;5012743;28;20568;-78
2022/09/03 06:16:44;;;;;;;16.88;10.25;;;22.10;63.20;;;;;;5012796;28;20025;-77
2022/09/03 06:19:10;;;;;;;14.77;10.43;;;22.10;63.30;;;;;;5012248;28;20038;-77
2022/09/03 06:21:41;;;;;;;14.48;9.88;;;22.00;63.70;;;;;;4978743;28;20042;-77
2022/09/03 06:24:16;;;;;;;16.17;10.38;;;22.00;63.80;;;;;;4979124;28;20041;-77
2022/09/03 06:26:42;;;;;;;14.10;9.57;;;22.10;64.30;;;;;;4995337;28;20505;-77
2022/09/03 06:29:08;;;;;;;19.30;10.73;;;22.00;64.10;;;;;;5012254;28;20026;-77
2022/09/03 06:31:34;;;;;;;16.02;9.93;;;22.10;63.90;;;;;;5012435;28;20030;-77
2022/09/03 06:34:00;;;;;;;15.25;9.85;;;22.00;64.30;;;;;;5012476;28;20117;-77
2022/09/03 06:36:27;;;;;;;15.95;9.68;;;22.00;64.30;;;;;;4962710;28;20037;-78
2022/09/03 06:38:55;;;;;;;16.15;10.38;;;22.00;64.00;;;;;;5012036;28;20037;-78
2022/09/03 06:41:30;;;;;;;15.15;10.10;;;22.10;64.30;;;;;;5012174;28;20061;-78
2022/09/03 06:44:00;;;;;;;15.65;9.52;;;22.00;63.90;;;;;;4994335;28;20025;-79
2022/09/03 06:46:26;;;;;;;;;;;22.00;63.60;;;;;;5012459;28;20030;-79
2022/09/03 06:48:52;;;;;;;14.88;9.57;;;22.00;63.70;;;;;;4994400;28;19940;-79
2022/09/03 06:51:21;;;;;;;14.48;9.98;;;22.00;64.00;;;;;;4994661;28;20139;-79
2022/09/03 06:54:05;;;;;;;14.20;9.43;;;22.00;64.20;;;;;;5012121;28;20101;-79
2022/09/03 06:56:32;;;;;;;17.35;10.20;;;22.00;64.00;;;;;;5012278;28;20037;-79
2022/09/03 06:59:03;;;;;;;15.90;9.68;;;22.10;64.20;;;;;;5011689;28;20116;-79
2022/09/03 07:01:30;;;;;;;14.45;9.82;;;22.10;64.20;;;;;;5012621;28;20447;-78
2022/09/03 07:04:02;;;;;;;15.23;9.48;;;22.00;63.50;;;;;;4994449;28;20398;-78
2022/09/03 07:06:31;;;;;;;15.18;9.65;;;22.00;63.20;;;;;;5012017;28;20058;-78
2022/09/03 07:08:58;;;;;;;14.38;9.45;;;22.10;63.30;;;;;;5011612;28;20097;-78
2022/09/03 07:11:26;;;;;;;17.95;9.52;;;22.10;63.40;;;;;;5011742;28;20026;-78
2022/09/03 07:13:54;;;;;;;17.10;9.45;;;22.10;63.40;;;;;;4962286;28;20041;-78
2022/09/03 07:16:26;;;;;;;14.70;9.43;;;22.10;63.60;;;;;;4994414;28;20036;-79
2022/09/03 07:18:53;;;;;;;17.27;9.13;;;22.10;63.50;;;;;;5011470;28;20084;-78
2022/09/03 07:21:27;;;;;;;17.05;9.38;;;22.00;63.80;;;;;;4977946;28;20108;-78
2022/09/03 07:23:54;;;;;;;13.85;8.90;;;22.10;64.00;;;;;;5011727;28;20509;-78
2022/09/03 07:26:31;;;;;;;14.52;9.23;;;22.00;63.80;;;;;;4994107;28;20088;-78
2022/09/03 07:28:59;;;;;;;16.23;9.38;;;22.10;63.90;;;;;;4977778;28;20064;-78
2022/09/03 07:31:33;;;;;;;16.13;8.93;;;22.00;63.90;;;;;;5011714;28;20612;-79
2022/09/03 07:34:05;;;;;;;15.00;8.88;;;22.10;63.90;;;;;;4994778;28;20044;-79
2022/09/03 07:36:37;;;;;;;18.58;9.48;;;22.10;63.90;;;;;;4998122;28;20076;-79
2022/09/03 07:39:04;;;;;;;15.30;9.75;;;22.00;63.80;;;;;;4997818;28;20038;-79
2022/09/03 07:41:32;;;;;;;14.35;9.15;;;22.10;63.70;;;;;;5050056;22;20167;-84
2022/09/03 07:44:04;;;;;;;14.32;9.60;;;22.00;63.80;;;;;;5009189;28;20393;-84
2022/09/03 07:46:33;;;;;;;17.30;9.45;;;22.00;64.50;;;;;;5040098;28;20029;-83
2022/09/03 07:49:02;;;;;;;15.80;8.95;;;22.00;63.90;;;;;;5056800;28;20032;-83
2022/09/03 07:51:30;;;;;;;14.18;8.65;;;22.00;63.90;;;;;;5074881;28;20047;-84
2022/09/03 07:53:59;;;;;;;16.17;8.63;;;22.00;63.80;;;;;;5074513;28;20029;-84
2022/09/03 07:56:31;;;;;;;12.93;8.13;;;22.10;63.90;;;;;;5074891;28;20040;-84
2022/09/03 07:58:58;;;;;;;15.15;8.52;;;22.10;63.70;;;;;;5040015;28;20025;-84
2022/09/03 08:01:27;;;;;;;14.35;8.25;;;22.00;63.70;;;;;;5040379;28;20036;-83
2022/09/03 08:03:54;;;;;;;14.13;8.48;;;22.00;64.00;;;;;;5040234;28;20044;-83
2022/09/03 08:06:21;;;;;;;13.35;8.40;;;22.00;64.60;;;;;;5056784;28;20028;-83
2022/09/03 08:08:47;;;;;;;14.32;8.57;;;22.10;64.10;;;;;;5056735;28;20032;-83
2022/09/03 08:11:19;;;;;;;15.48;8.60;;;22.10;63.60;;;;;;5056449;28;20021;-84
2022/09/03 08:13:48;;;;;;;13.80;8.40;;;22.00;63.40;;;;;;5056464;28;20056;-83
2022/09/03 08:16:19;;;;;;;12.98;8.10;;;22.10;63.40;;;;;;5056606;28;20107;-83
2022/09/03 08:18:46;;;;;;;17.33;9.20;;;22.10;63.90;;;;;;5074132;28;20029;-84
2022/09/03 08:21:14;;;;;;;13.57;8.48;;;22.10;63.30;;;;;;5056581;28;20086;-84
2022/09/03 08:23:42;;;;;;;12.48;8.10;;;22.10;63.30;;;;;;5039900;28;20546;-83
2022/09/03 08:26:08;;;;;;;13.13;8.63;;;22.10;63.30;;;;;;5074275;28;20123;-83
2022/09/03 08:28:35;;;;;;;15.20;8.55;;;22.10;63.20;;;;;;5056110;28;20124;-83
2022/09/03 08:31:16;;;;;;;13.07;8.02;;;22.10;62.90;;;;;;5039898;28;20040;-83
2022/09/03 08:33:51;;;;;;;12.98;7.88;;;22.10;62.80;;;;;;5056337;28;20078;-84
2022/09/03 08:36:31;;;;;;;15.18;8.75;;;22.10;62.80;;;;;;5074227;28;20445;-82
2022/09/03 08:39:08;;;;;;;12.48;8.38;;;22.10;62.80;;;;;;5056201;28;20029;-85
2022/09/03 08:41:52;;;;;;;14.32;8.40;;;22.10;63.00;;;;;;5054322;28;20547;-82
2022/09/03 08:44:45;;;;;;;13.55;8.35;;;22.10;63.30;;;;;;5009664;28;20473;-83
2022/09/03 08:47:42;;;;;;;17.33;8.13;;;22.20;63.10;;;;;;5041957;28;20082;-83
2022/09/03 08:50:30;;;;;;;13.88;7.72;;;22.20;63.90;;;;;;5043368;28;20079;-84
2022/09/03 08:53:21;;;;;;;16.95;8.90;;;22.20;64.00;;;;;;5025212;28;20026;-83
2022/09/03 08:55:55;;;;;;;14.77;8.38;;;22.20;64.40;;;;;;5026183;28;20119;-89
2022/09/03 08:58:37;;;;;;;14.13;7.78;;;22.20;64.20;;;;;;5026272;28;20055;-88
2022/09/03 09:01:30;;;;;;;15.93;8.32;;;22.20;64.50;;;;;;5008410;28;20051;-85
2022/09/03 09:04:20;;;;;;;13.77;7.43;;;22.20;65.30;;;;;;5035804;28;20037;-83
2022/09/03 09:06:59;;;;;;;16.02;8.15;;;22.30;64.40;;;;;;5053429;28;20520;-82
2022/09/03 09:09:54;;;;;;;16.30;7.95;;;22.30;65.00;;;;;;5053370;28;20424;-81
2022/09/03 09:12:46;;;;;;;16.35;8.30;;;22.40;65.10;;;;;;5053372;28;20393;-80
2022/09/03 09:15:42;;;;;;;18.33;8.38;;;22.30;64.60;;;;;;5053581;28;20025;-80
2022/09/03 09:18:26;;;;;;;11.93;7.20;;;22.40;64.70;;;;;;5053479;28;20071;-88
2022/09/03 09:21:26;;;;;;;15.65;8.00;;;22.30;63.80;;;;;;5019145;28;20036;-80
2022/09/03 09:23:53;;;;;;;10.57;5.63;;;22.30;63.90;;;;;;5053041;28;20056;-78
2022/09/03 09:26:20;;;;;;;11.68;5.78;;;22.40;63.70;;;;;;5035808;28;20032;-78
2022/09/03 09:28:56;;;;;;;66.35;43.95;;;22.40;62.80;;;;;;5052808;28;20033;-78
2022/09/03 09:31:23;;;;;;;33.03;22.33;;;22.40;63.00;;;;;;5052999;28;20118;-78
2022/09/03 09:33:50;;;;;;;26.60;16.92;;;22.40;62.50;;;;;;5053047;28;20032;-78
2022/09/03 09:36:18;;;;;;;34.70;19.60;;;22.40;63.00;;;;;;5052922;28;20047;-77
2022/09/03 09:38:46;;;;;;;31.55;20.75;;;22.40;62.90;;;;;;5052868;28;20504;-78
2022/09/03 09:41:14;;;;;;;27.83;19.95;;;22.40;62.00;;;;;;5052224;28;20123;-77
2022/09/03 09:43:44;;;;;;;28.67;17.00;;;22.40;62.40;;;;;;5035604;28;20109;-78
2022/09/03 09:46:25;;;;;;;28.25;17.40;;;22.40;61.30;;;;;;5052652;28;20488;-78
2022/09/03 09:48:53;;;;;;;25.30;16.65;;;22.40;60.30;;;;;;5034702;28;20493;-78
2022/09/03 09:51:24;;;;;;;17.15;9.07;;;22.40;59.60;;;;;;5052627;28;20021;-78
2022/09/03 09:54:17;;;;;;;15.32;8.52;;;22.40;59.30;;;;;;5052465;28;20029;-78
2022/09/03 09:56:43;;;;;;;19.15;11.00;;;22.40;59.70;;;;;;5052095;28;20107;-78
2022/09/03 09:59:11;;;;;;;14.77;9.00;;;22.40;60.00;;;;;;5052395;28;20029;-78
2022/09/03 10:01:41;;;;;;;19.10;9.93;;;22.40;59.60;;;;;;5018475;28;20040;-77
2022/09/03 10:04:12;;;;;;;18.98;10.75;;;22.50;59.90;;;;;;5052406;28;20270;-77
2022/09/03 10:06:55;;;;;;;29.38;12.05;;;22.40;60.20;;;;;;5052425;28;20031;-74
2022/09/03 10:09:29;;;;;;;27.83;10.73;;;22.40;60.80;;;;;;5034673;28;20154;-81
2022/09/03 10:12:23;;;;;;;29.48;9.43;;;22.50;61.10;;;;;;5018045;28;20056;-80
2022/09/03 10:15:06;;;;;;;22.17;9.18;;;22.50;60.70;;;;;;5052311;28;20602;-80
2022/09/03 10:17:45;;;;;;;25.58;9.25;;;22.50;60.70;;;;;;5034436;28;20052;-81
2022/09/03 10:20:32;;;;;;;30.37;12.77;;;22.40;60.90;;;;;;5034035;28;20405;-80
2022/09/03 10:23:24;;;;;;;23.75;9.95;;;22.40;61.50;;;;;;5052041;28;20064;-80
2022/09/03 10:26:06;;;;;;;25.15;11.20;;;22.40;61.60;;;;;;5052217;28;20025;-79
2022/09/03 10:28:40;;;;;;;25.23;11.68;;;22.40;61.70;;;;;;5051846;28;20459;-79
2022/09/03 10:31:19;;;;;;;21.48;10.55;;;22.40;61.90;;;;;;5052110;28;20385;-80
2022/09/03 10:34:02;;;;;;;20.65;11.10;;;22.30;62.20;;;;;;5052136;28;20048;-80
2022/09/03 10:36:50;;;;;;;17.30;10.10;;;22.30;62.10;;;;;;5034148;28;20068;-80
2022/09/03 10:39:21;;;;;;;20.77;9.65;;;22.30;62.20;;;;;;5034278;28;20029;-80
2022/09/03 10:42:02;;;;;;;18.67;9.18;;;22.30;62.20;;;;;;5017419;28;20043;-80
2022/09/03 10:44:56;;;;;;;18.70;9.95;;;22.30;62.30;;;;;;5001605;28;20033;-80
2022/09/03 10:47:51;;;;;;;20.30;10.45;;;22.30;62.20;;;;;;5033904;28;20124;-79
2022/09/03 10:50:22;;;;;;;16.33;8.65;;;22.30;62.30;;;;;;5051422;28;20093;-80
2022/09/03 10:52:50;;;;;;;15.63;8.90;;;22.30;62.40;;;;;;5033966;28;20064;-80
2022/09/03 10:55:38;;;;;;;18.88;9.13;;;22.30;62.30;;;;;;5052102;28;20037;-80
2022/09/03 10:58:18;;;;;;;18.45;8.52;;;22.30;62.40;;;;;;5034011;28;20063;-80
2022/09/03 11:00:53;;;;;;;17.55;8.75;;;22.30;62.40;;;;;;5051393;28;20052;-80
2022/09/03 11:03:32;;;;;;;16.33;9.00;;;22.30;62.40;;;;;;5051587;28;20362;-80
2022/09/03 11:06:10;;;;;;;18.98;8.85;;;22.30;62.50;;;;;;5033882;28;20040;-80
2022/09/03 11:09:09;;;;;;;13.02;8.10;;;22.20;62.50;;;;;;5051194;28;20040;-80
2022/09/03 11:11:44;;;;;;;17.02;8.65;;;22.20;62.60;;;;;;4952382;28;20068;-80
2022/09/03 11:14:15;;;;;;;14.93;8.48;;;22.20;62.60;;;;;;5037764;28;20519;-80
2022/09/03 11:16:47;;;;;;;15.20;8.48;;;22.20;62.60;;;;;;5055346;28;20495;-80
2022/09/03 11:19:17;;;;;;;16.33;8.52;;;22.20;62.60;;;;;;5037572;28;20475;-80
2022/09/03 11:21:48;;;;;;;13.35;8.18;;;22.30;62.70;;;;;;5038391;28;20377;-81
2022/09/03 11:24:19;;;;;;;12.48;7.43;;;22.30;62.60;;;;;;5055480;28;20439;-81
2022/09/03 11:26:55;;;;;;;17.05;8.85;;;22.20;63.10;;;;;;5055418;28;20477;-81
2022/09/03 11:29:50;;;;;;;17.10;8.48;;;22.20;62.50;;;;;;5037203;28;20108;-81
2022/09/03 11:32:45;;;;;;;13.32;8.35;;;22.20;62.60;;;;;;5055214;28;20500;-81
2022/09/03 11:35:40;;;;;;;14.98;8.15;;;22.20;62.60;;;;;;5044008;28;20121;-80
2022/09/03 11:38:19;;;;;;;14.35;8.75;;;22.20;62.60;;;;;;5052452;28;20041;-80
2022/09/03 11:40:57;;;;;;;16.83;8.48;;;22.20;62.70;;;;;;5037056;28;20041;-79
2022/09/03 11:43:23;;;;;;;15.63;8.23;;;22.20;62.60;;;;;;5055050;28;20393;-79
2022/09/03 11:46:05;;;;;;;13.77;8.35;;;22.20;62.70;;;;;;5055060;28;20031;-80
2022/09/03 11:48:38;;;;;;;14.25;8.25;;;22.20;62.80;;;;;;5054758;28;20083;-80
2022/09/03 11:51:14;;;;;;;15.13;7.75;;;22.20;62.80;;;;;;5054981;28;20487;-80
2022/09/03 11:53:40;;;;;;;13.73;8.23;;;22.20;62.70;;;;;;5054858;28;20047;-80
2022/09/03 11:56:06;;;;;;;13.88;7.90;;;22.20;62.70;;;;;;5055067;28;20484;-81
2022/09/03 11:58:35;;;;;;;16.05;8.35;;;22.20;62.80;;;;;;5054425;28;20316;-80
2022/09/03 12:01:04;;;;;;;13.77;7.72;;;22.20;62.70;;;;;;5054606;28;20086;-81
2022/09/03 12:03:41;;;;;;;14.38;8.00;;;22.20;62.70;;;;;;5054671;28;20029;-81
2022/09/03 12:06:45;;;;;;;14.75;7.65;;;22.20;62.70;;;;;;5036720;28;20471;-81
2022/09/03 12:09:33;;;;;;;13.68;7.82;;;22.20;62.70;;;;;;5054270;28;20392;-81
2022/09/03 12:12:26;;;;;;;13.80;7.88;;;22.20;62.70;;;;;;5054650;28;20491;-80
2022/09/03 12:14:55;;;;;;;14.95;8.48;;;22.20;62.70;;;;;;5036869;28;20038;-81
2022/09/03 12:17:46;;;;;;;13.95;7.88;;;22.20;62.80;;;;;;5054043;28;20032;-81
2022/09/03 12:20:14;;;;;;;13.80;8.07;;;22.20;62.80;;;;;;5053755;28;20025;-81
2022/09/03 12:22:40;;;;;;;14.52;7.55;;;22.20;62.80;;;;;;5036484;28;20029;-81
2022/09/03 12:25:14;;;;;;;13.82;7.75;;;22.20;62.90;;;;;;5054194;28;20102;-81
2022/09/03 12:27:43;;;;;;;13.48;7.60;;;22.20;62.90;;;;;;5054425;28;20074;-81
2022/09/03 12:30:22;;;;;;;12.48;7.47;;;22.20;63.00;;;;;;5053853;28;20028;-80
2022/09/03 12:32:50;;;;;;;12.35;7.63;;;22.20;63.00;;;;;;5020111;28;20036;-80
2022/09/03 12:35:22;;;;;;;14.85;7.85;;;22.20;63.00;;;;;;5003790;28;20085;-80
2022/09/03 12:37:51;;;;;;;13.88;7.53;;;22.20;63.40;;;;;;5036341;28;20436;-80
2022/09/03 12:40:20;;;;;;;18.95;7.28;;;22.20;63.40;;;;;;5053576;28;20025;-80
2022/09/03 12:42:46;;;;;;;22.77;7.37;;;22.20;63.90;;;;;;5036244;28;20060;-80
2022/09/03 12:45:15;;;;;;;18.30;7.03;;;22.20;63.80;;;;;;5053768;28;20029;-81
2022/09/03 12:47:42;;;;;;;16.73;6.85;;;22.30;62.80;;;;;;5054110;28;20021;-81
2022/09/03 12:50:22;;;;;;;14.57;6.60;;;22.30;61.70;;;;;;5053524;28;20025;-81
2022/09/03 12:53:02;;;;;;;14.48;5.97;;;22.30;61.10;;;;;;5053910;28;20031;-75
2022/09/03 12:55:41;;;;;;;;;;;22.30;61.10;;;;;;5036368;28;20033;-71
2022/09/03 12:58:22;;;;;;;15.25;5.10;;;22.30;59.00;;;;;;5019540;28;19912;-72
2022/09/03 13:01:10;;;;;;;15.65;5.50;;;22.30;59.70;;;;;;5053310;28;20378;-72
2022/09/03 13:03:53;;;;;;;18.10;5.25;;;22.30;59.40;;;;;;5053519;28;20037;-72
2022/09/03 13:06:22;;;;;;;13.43;4.35;;;22.30;59.20;;;;;;5019249;28;20401;-72